createdAt,value
2023-01-22T00:00:23.025Z,52.15
2023-01-22T00:01:24.840Z,52.09
2023-01-22T00:02:26.714Z,52.08
2023-01-22T00:03:28.543Z,52.13
2023-01-22T00:04:30.303Z,52.07
2023-01-22T00:05:32.230Z,52.07
2023-01-22T00:06:34.122Z,52.06
2023-01-22T00:07:35.939Z,52.13
2023-01-22T00:08:37.727Z,52.18
2023-01-22T00:09:39.504Z,52.27
2023-01-22T00:10:41.424Z,52.27
2023-01-22T00:11:43.220Z,52.25
2023-01-22T00:12:45.018Z,52.36
2023-01-22T00:13:46.805Z,52.45
2023-01-22T00:14:48.623Z,52.49
2023-01-22T00:15:50.488Z,52.54
2023-01-22T00:16:52.256Z,52.63
2023-01-22T00:17:54.048Z,52.60
2023-01-22T00:18:55.926Z,52.65
2023-01-22T00:19:57.721Z,52.73
2023-01-22T00:20:59.654Z,52.83
2023-01-22T00:22:01.472Z,52.96
2023-01-22T00:23:03.312Z,53.02
2023-01-22T00:24:05.081Z,53.14
2023-01-22T00:25:06.882Z,53.09
2023-01-22T00:26:08.816Z,53.05
2023-01-22T00:27:10.592Z,53.02
2023-01-22T00:28:12.379Z,53.02
2023-01-22T00:29:14.175Z,52.96
2023-01-22T00:30:16.383Z,52.94
2023-01-22T00:31:18.435Z,52.88
2023-01-22T00:32:20.420Z,52.89
2023-01-22T00:33:22.201Z,52.88
2023-01-22T00:34:23.974Z,52.76
2023-01-22T00:35:25.760Z,52.67
2023-01-22T00:36:27.679Z,52.64
2023-01-22T00:37:29.474Z,52.66
2023-01-22T00:38:31.274Z,52.66
2023-01-22T00:39:33.157Z,52.71
2023-01-22T00:40:35.057Z,52.67
2023-01-22T00:41:36.884Z,52.66
2023-01-22T00:42:38.666Z,52.66
2023-01-22T00:43:40.452Z,52.72
2023-01-22T00:44:42.231Z,52.72
2023-01-22T00:45:44.028Z,52.68
2023-01-22T00:46:45.997Z,52.72
2023-01-22T00:47:47.766Z,52.70
2023-01-22T00:48:49.544Z,52.65
2023-01-22T00:49:51.342Z,52.55
2023-01-22T00:50:53.400Z,52.47
2023-01-22T00:51:55.168Z,52.49
2023-01-22T00:52:56.980Z,52.50
2023-01-22T00:53:58.840Z,52.63
2023-01-22T00:55:00.646Z,52.66
2023-01-22T00:56:02.643Z,52.69
2023-01-22T00:57:04.452Z,52.69
2023-01-22T00:58:07.551Z,52.76
2023-01-22T00:59:09.359Z,52.76
2023-01-22T01:00:11.235Z,52.82
2023-01-22T01:01:13.064Z,52.83
2023-01-22T01:02:14.899Z,52.89
2023-01-22T01:03:16.656Z,52.92
2023-01-22T01:04:18.458Z,52.92
2023-01-22T01:05:20.243Z,52.91
2023-01-22T01:06:22.231Z,52.91
2023-01-22T01:07:24.124Z,52.92
2023-01-22T01:08:25.949Z,52.86
2023-01-22T01:09:27.803Z,52.90
2023-01-22T01:10:29.705Z,52.89
2023-01-22T01:11:31.488Z,52.84
2023-01-22T01:12:33.323Z,52.80
2023-01-22T01:13:35.120Z,52.73
2023-01-22T01:14:36.911Z,52.76
2023-01-22T01:15:38.686Z,52.76
2023-01-22T01:16:40.666Z,52.74
2023-01-22T01:17:42.501Z,52.84
2023-01-22T01:18:44.300Z,52.95
2023-01-22T01:19:46.093Z,52.92
2023-01-22T01:20:47.984Z,52.88
2023-01-22T01:21:49.783Z,52.89
2023-01-22T01:22:51.627Z,52.89
2023-01-22T01:23:53.420Z,52.89
2023-01-22T01:24:55.221Z,52.84
2023-01-22T01:25:57.014Z,52.89
2023-01-22T01:26:59.103Z,52.91
2023-01-22T01:28:00.907Z,52.93
2023-01-22T01:29:02.699Z,52.90
2023-01-22T01:30:04.698Z,52.82
2023-01-22T01:31:06.577Z,52.85
2023-01-22T01:32:08.399Z,52.90
2023-01-22T01:33:10.219Z,52.85
2023-01-22T01:34:12.018Z,52.81
2023-01-22T01:35:13.908Z,52.83
2023-01-22T01:36:16.601Z,52.84
2023-01-22T01:37:18.414Z,52.80
2023-01-22T01:38:20.231Z,52.91
2023-01-22T01:39:22.072Z,52.93
2023-01-22T01:40:23.961Z,52.99
2023-01-22T01:41:25.738Z,53.04
2023-01-22T01:42:27.532Z,53.12
2023-01-22T01:43:29.371Z,53.06
2023-01-22T01:44:31.175Z,53.06
2023-01-22T01:45:32.973Z,53.02
2023-01-22T01:46:34.956Z,52.97
2023-01-22T01:47:36.724Z,52.90
2023-01-22T01:48:38.567Z,52.88
2023-01-22T01:49:40.370Z,52.83
2023-01-22T01:50:42.254Z,52.80
2023-01-22T01:51:44.035Z,52.87
2023-01-22T01:52:45.816Z,52.97
2023-01-22T01:53:47.655Z,53.11
2023-01-22T01:54:49.425Z,53.16
2023-01-22T01:55:51.247Z,53.18
2023-01-22T01:56:53.152Z,53.14
2023-01-22T01:57:54.934Z,53.17
2023-01-22T01:58:56.772Z,53.12
2023-01-22T01:59:58.555Z,52.98
2023-01-22T02:01:00.497Z,53.04
2023-01-22T02:02:02.282Z,53.09
2023-01-22T02:03:04.134Z,53.11
2023-01-22T02:04:05.955Z,53.04
2023-01-22T02:05:07.749Z,53.12
2023-01-22T02:06:10.860Z,53.15
2023-01-22T02:07:12.835Z,53.07
2023-01-22T02:08:14.661Z,53.14
2023-01-22T02:09:16.520Z,53.17
2023-01-22T02:10:18.630Z,53.14
2023-01-22T02:11:20.591Z,53.14
2023-01-22T02:12:22.418Z,53.23
2023-01-22T02:13:24.219Z,53.23
2023-01-22T02:14:26.111Z,53.28
2023-01-22T02:15:27.903Z,53.21
2023-01-22T02:16:29.894Z,53.25
2023-01-22T02:17:31.726Z,53.23
2023-01-22T02:18:33.541Z,53.23
2023-01-22T02:19:35.389Z,53.27
2023-01-22T02:20:37.313Z,53.31
2023-01-22T02:21:39.117Z,53.31
2023-01-22T02:22:40.922Z,53.28
2023-01-22T02:23:42.729Z,53.31
2023-01-22T02:24:44.623Z,53.35
2023-01-22T02:25:46.421Z,53.26
2023-01-22T02:26:48.243Z,53.25
2023-01-22T02:27:50.045Z,53.29
2023-01-22T02:28:51.871Z,53.28
2023-01-22T02:29:53.871Z,52.95
2023-01-22T02:30:55.818Z,52.95
2023-01-22T02:31:57.752Z,53.30
2023-01-22T02:32:59.623Z,53.29
2023-01-22T02:34:01.428Z,53.26
2023-01-22T02:35:03.276Z,53.20
2023-01-22T02:36:05.197Z,53.14
2023-01-22T02:37:07.034Z,53.08
2023-01-22T02:38:08.828Z,53.11
2023-01-22T02:39:10.635Z,53.08
2023-01-22T02:40:12.595Z,52.99
2023-01-22T02:41:14.412Z,53.04
2023-01-22T02:42:16.282Z,53.09
2023-01-22T02:43:18.091Z,53.16
2023-01-22T02:44:19.908Z,53.11
2023-01-22T02:45:21.780Z,53.05
2023-01-22T02:46:23.588Z,52.89
2023-01-22T02:47:25.393Z,52.94
2023-01-22T02:48:27.208Z,52.94
2023-01-22T02:49:29.179Z,52.96
2023-01-22T02:50:31.136Z,53.04
2023-01-22T02:51:32.948Z,53.15
2023-01-22T02:52:34.768Z,53.16
2023-01-22T02:53:36.577Z,53.09
2023-01-22T02:54:38.381Z,53.01
2023-01-22T02:55:40.242Z,53.07
2023-01-22T02:56:42.247Z,53.14
2023-01-22T02:57:44.079Z,53.13
2023-01-22T02:58:45.889Z,53.16
2023-01-22T02:59:47.700Z,53.13
2023-01-22T03:00:49.825Z,53.15
2023-01-22T03:01:51.689Z,53.13
2023-01-22T03:02:53.568Z,53.14
2023-01-22T03:03:55.442Z,53.15
2023-01-22T03:04:57.256Z,53.14
2023-01-22T03:05:59.104Z,53.15
2023-01-22T03:07:01.007Z,53.18
2023-01-22T03:08:02.835Z,53.18
2023-01-22T03:09:04.647Z,53.12
2023-01-22T03:10:06.654Z,53.06
2023-01-22T03:11:08.505Z,53.09
2023-01-22T03:12:10.341Z,52.96
2023-01-22T03:13:12.277Z,52.78
2023-01-22T03:14:14.102Z,52.71
2023-01-22T03:15:15.907Z,52.74
2023-01-22T03:16:17.939Z,52.74
2023-01-22T03:17:19.717Z,52.80
2023-01-22T03:18:21.576Z,52.82
2023-01-22T03:19:23.385Z,52.77
2023-01-22T03:20:25.305Z,52.65
2023-01-22T03:21:27.163Z,52.62
2023-01-22T03:22:28.962Z,52.66
2023-01-22T03:23:30.777Z,52.66
2023-01-22T03:24:32.593Z,52.65
2023-01-22T03:25:34.410Z,52.67
2023-01-22T03:26:36.779Z,52.67
2023-01-22T03:27:38.582Z,52.71
2023-01-22T03:28:40.434Z,52.71
2023-01-22T03:29:42.244Z,52.72
2023-01-22T03:30:44.260Z,52.69
2023-01-22T03:31:46.221Z,52.72
2023-01-22T03:32:48.016Z,52.70
2023-01-22T03:33:49.828Z,52.71
2023-01-22T03:34:51.649Z,52.78
2023-01-22T03:35:53.464Z,52.72
2023-01-22T03:36:55.306Z,52.65
2023-01-22T03:37:57.117Z,52.52
2023-01-22T03:38:58.923Z,52.43
2023-01-22T03:40:00.777Z,52.40
2023-01-22T03:41:02.567Z,52.38
2023-01-22T03:42:04.414Z,52.42
2023-01-22T03:43:06.227Z,52.40
2023-01-22T03:44:08.114Z,52.40
2023-01-22T03:45:09.935Z,52.37
2023-01-22T03:46:12.213Z,52.34
2023-01-22T03:47:13.999Z,52.27
2023-01-22T03:48:15.816Z,52.10
2023-01-22T03:49:17.626Z,52.11
2023-01-22T03:50:19.819Z,52.14
2023-01-22T03:51:21.785Z,52.02
2023-01-22T03:52:23.614Z,51.96
2023-01-22T03:53:25.436Z,51.99
2023-01-22T03:54:27.246Z,52.08
2023-01-22T03:55:29.262Z,52.21
2023-01-22T03:56:31.170Z,52.25
2023-01-22T03:57:33.016Z,52.24
2023-01-22T03:58:34.837Z,52.31
2023-01-22T03:59:36.678Z,52.34
2023-01-22T04:00:38.683Z,52.40
2023-01-22T04:01:40.513Z,52.48
2023-01-22T04:02:42.428Z,52.50
2023-01-22T04:03:44.194Z,52.46
2023-01-22T04:04:45.988Z,52.35
2023-01-22T04:05:47.798Z,52.37
2023-01-22T04:06:49.725Z,52.32
2023-01-22T04:07:51.573Z,52.32
2023-01-22T04:08:53.383Z,52.31
2023-01-22T04:09:55.188Z,52.19
2023-01-22T04:10:57.577Z,52.08
2023-01-22T04:11:59.382Z,52.09
2023-01-22T04:13:01.233Z,52.12
2023-01-22T04:14:03.056Z,52.15
2023-01-22T04:15:04.934Z,52.20
2023-01-22T04:16:07.154Z,52.20
2023-01-22T04:17:08.954Z,52.22
2023-01-22T04:18:10.817Z,52.11
2023-01-22T04:19:12.630Z,52.08
2023-01-22T04:20:14.518Z,52.04
2023-01-22T04:21:16.321Z,51.95
2023-01-22T04:22:18.110Z,51.91
2023-01-22T04:23:19.937Z,51.95
2023-01-22T04:24:21.733Z,51.94
2023-01-22T04:25:23.535Z,51.93
2023-01-22T04:26:25.525Z,51.91
2023-01-22T04:27:27.317Z,51.81
2023-01-22T04:28:29.155Z,51.79
2023-01-22T04:29:30.947Z,51.75
2023-01-22T04:30:33.044Z,51.75
2023-01-22T04:31:35.017Z,51.77
2023-01-22T04:32:36.875Z,51.83
2023-01-22T04:33:38.709Z,51.79
2023-01-22T04:34:40.498Z,51.71
2023-01-22T04:35:42.319Z,51.75
2023-01-22T04:36:44.090Z,51.74
2023-01-22T04:37:45.863Z,51.86
2023-01-22T04:38:47.689Z,51.87
2023-01-22T04:39:49.473Z,51.88
2023-01-22T04:40:51.469Z,51.82
2023-01-22T04:41:53.274Z,51.81
2023-01-22T04:42:55.047Z,51.79
2023-01-22T04:43:56.880Z,51.77
2023-01-22T04:44:58.679Z,51.70
2023-01-22T04:46:00.530Z,51.79
2023-01-22T04:47:02.264Z,51.80
2023-01-22T04:48:04.067Z,51.74
2023-01-22T04:49:05.878Z,51.73
2023-01-22T04:50:08.165Z,51.73
2023-01-22T04:51:09.982Z,51.74
2023-01-22T04:52:11.754Z,51.81
2023-01-22T04:53:13.552Z,51.79
2023-01-22T04:54:15.362Z,51.74
2023-01-22T04:55:17.144Z,51.70
2023-01-22T04:56:19.151Z,51.74
2023-01-22T04:57:20.953Z,51.78
2023-01-22T04:58:22.727Z,51.83
2023-01-22T04:59:24.561Z,51.85
2023-01-22T05:00:26.454Z,51.80
2023-01-22T05:01:29.735Z,51.77
2023-01-22T05:02:31.684Z,51.77
2023-01-22T05:03:33.473Z,51.88
2023-01-22T05:04:35.299Z,51.92
2023-01-22T05:05:37.086Z,51.91
2023-01-22T05:06:38.973Z,51.75
2023-01-22T05:07:40.784Z,51.68
2023-01-22T05:08:42.602Z,51.67
2023-01-22T05:09:44.427Z,51.78
2023-01-22T05:10:46.317Z,51.77
2023-01-22T05:11:48.100Z,51.71
2023-01-22T05:12:49.903Z,51.75
2023-01-22T05:13:51.691Z,51.77
2023-01-22T05:14:53.522Z,51.78
2023-01-22T05:15:55.348Z,51.77
2023-01-22T05:16:57.308Z,51.77
2023-01-22T05:17:59.102Z,51.75
2023-01-22T05:19:00.893Z,51.68
2023-01-22T05:20:02.714Z,51.60
2023-01-22T05:21:04.499Z,51.52
2023-01-22T05:22:06.299Z,51.50
2023-01-22T05:23:08.277Z,51.51
2023-01-22T05:24:10.075Z,51.49
2023-01-22T05:25:11.884Z,51.40
2023-01-22T05:26:13.783Z,51.52
2023-01-22T05:27:15.561Z,51.66
2023-01-22T05:28:17.346Z,51.69
2023-01-22T05:29:19.114Z,51.71
2023-01-22T05:30:21.009Z,51.75
2023-01-22T05:31:22.891Z,51.77
2023-01-22T05:32:24.730Z,51.74
2023-01-22T05:33:26.522Z,51.70
2023-01-22T05:34:28.314Z,51.66
2023-01-22T05:35:30.149Z,51.64
2023-01-22T05:36:32.028Z,51.58
2023-01-22T05:37:33.806Z,51.57
2023-01-22T05:38:35.616Z,51.62
2023-01-22T05:39:37.393Z,51.58
2023-01-22T05:40:39.325Z,51.66
2023-01-22T05:41:41.108Z,51.68
2023-01-22T05:42:42.895Z,51.71
2023-01-22T05:43:44.702Z,51.70
2023-01-22T05:44:46.485Z,51.65
2023-01-22T05:45:48.306Z,51.63
2023-01-22T05:46:50.288Z,51.59
2023-01-22T05:47:52.119Z,51.58
2023-01-22T05:48:53.920Z,51.56
2023-01-22T05:49:55.711Z,51.54
2023-01-22T05:50:57.565Z,51.54
2023-01-22T05:51:59.314Z,51.57
2023-01-22T05:53:01.129Z,51.54
2023-01-22T05:54:03.064Z,51.55
2023-01-22T05:55:04.857Z,51.63
2023-01-22T05:56:06.990Z,51.80
2023-01-22T05:57:08.800Z,51.96
2023-01-22T05:58:10.563Z,52.03
2023-01-22T05:59:12.332Z,52.11
2023-01-22T06:00:14.544Z,52.07
2023-01-22T06:01:16.386Z,52.05
2023-01-22T06:02:18.188Z,51.99
2023-01-22T06:03:20.079Z,51.96
2023-01-22T06:04:21.876Z,51.88
2023-01-22T06:05:23.723Z,51.87
2023-01-22T06:06:25.690Z,51.89
2023-01-22T06:07:27.480Z,51.92
2023-01-22T06:08:29.265Z,51.90
2023-01-22T06:09:31.052Z,51.86
2023-01-22T06:10:33.131Z,51.94
2023-01-22T06:11:34.983Z,51.96
2023-01-22T06:12:36.758Z,52.04
2023-01-22T06:13:38.546Z,52.00
2023-01-22T06:14:40.360Z,51.92
2023-01-22T06:15:42.205Z,51.91
2023-01-22T06:16:44.287Z,51.80
2023-01-22T06:17:46.077Z,51.72
2023-01-22T06:18:47.882Z,51.78
2023-01-22T06:19:49.680Z,51.88
2023-01-22T06:20:51.594Z,51.95
2023-01-22T06:21:53.434Z,51.98
2023-01-22T06:22:55.296Z,51.96
2023-01-22T06:23:57.102Z,51.99
2023-01-22T06:24:58.891Z,52.08
2023-01-22T06:26:00.671Z,52.12
2023-01-22T06:27:02.498Z,52.16
2023-01-22T06:28:04.272Z,52.16
2023-01-22T06:29:06.059Z,52.17
2023-01-22T06:30:08.065Z,52.14
2023-01-22T06:31:10.005Z,52.05
2023-01-22T06:32:11.881Z,52.04
2023-01-22T06:33:13.703Z,52.01
2023-01-22T06:34:15.561Z,51.94
2023-01-22T06:35:17.369Z,51.88
2023-01-22T06:36:19.286Z,51.85
2023-01-22T06:37:21.151Z,51.86
2023-01-22T06:38:22.957Z,51.89
2023-01-22T06:39:24.795Z,51.86
2023-01-22T06:40:26.825Z,51.90
2023-01-22T06:41:28.635Z,51.97
2023-01-22T06:42:30.485Z,51.89
2023-01-22T06:43:32.325Z,51.87
2023-01-22T06:44:34.123Z,51.85
2023-01-22T06:45:35.943Z,51.90
2023-01-22T06:46:37.892Z,51.99
2023-01-22T06:47:39.803Z,52.03
2023-01-22T06:48:41.621Z,52.02
2023-01-22T06:49:43.477Z,52.03
2023-01-22T06:50:45.491Z,52.04
2023-01-22T06:51:47.326Z,52.00
2023-01-22T06:52:49.170Z,52.08
2023-01-22T06:53:50.980Z,52.11
2023-01-22T06:54:52.787Z,52.16
2023-01-22T06:55:54.626Z,52.20
2023-01-22T06:56:56.715Z,52.17
2023-01-22T06:57:58.594Z,52.20
2023-01-22T06:59:00.407Z,52.26
2023-01-22T07:00:02.386Z,52.29
2023-01-22T07:01:04.189Z,52.28
2023-01-22T07:02:05.964Z,52.31
2023-01-22T07:03:07.818Z,52.29
2023-01-22T07:04:09.656Z,52.25
2023-01-22T07:05:11.566Z,51.95
2023-01-22T07:06:15.155Z,52.19
2023-01-22T07:07:16.957Z,52.19
2023-01-22T07:08:18.810Z,52.18
2023-01-22T07:09:20.619Z,52.11
2023-01-22T07:10:22.478Z,52.04
2023-01-22T07:11:24.272Z,52.07
2023-01-22T07:12:26.068Z,52.12
2023-01-22T07:13:27.928Z,52.16
2023-01-22T07:14:36.860Z,52.23
2023-01-22T07:15:33.364Z,52.36
2023-01-22T07:16:35.281Z,52.35
2023-01-22T07:17:37.096Z,52.35
2023-01-22T07:18:38.963Z,52.30
2023-01-22T07:19:40.783Z,52.27
2023-01-22T07:20:42.853Z,52.26
2023-01-22T07:21:44.660Z,52.19
2023-01-22T07:22:46.469Z,52.21
2023-01-22T07:23:48.357Z,52.25
2023-01-22T07:24:50.188Z,52.31
2023-01-22T07:25:52.008Z,52.40
2023-01-22T07:26:53.900Z,52.40
2023-01-22T07:27:55.740Z,52.29
2023-01-22T07:28:57.623Z,52.11
2023-01-22T07:29:59.414Z,52.11
2023-01-22T07:31:01.530Z,52.08
2023-01-22T07:32:03.383Z,52.04
2023-01-22T07:33:05.196Z,51.98
2023-01-22T07:34:07.069Z,52.07
2023-01-22T07:35:08.875Z,52.09
2023-01-22T07:36:11.494Z,52.09
2023-01-22T07:37:13.312Z,52.10
2023-01-22T07:38:15.118Z,52.04
2023-01-22T07:39:16.988Z,52.16
2023-01-22T07:40:19.274Z,52.15
2023-01-22T07:41:26.130Z,52.17
2023-01-22T07:42:24.977Z,52.19
2023-01-22T07:43:26.811Z,52.25
2023-01-22T07:44:28.661Z,52.34
2023-01-22T07:45:30.519Z,52.32
2023-01-22T07:46:32.474Z,52.33
2023-01-22T07:47:34.363Z,52.41
2023-01-22T07:48:36.165Z,52.37
2023-01-22T07:49:38.025Z,52.31
2023-01-22T07:50:39.976Z,52.29
2023-01-22T07:51:41.832Z,52.47
2023-01-22T07:52:43.634Z,52.47
2023-01-22T07:53:45.487Z,52.36
2023-01-22T07:54:47.380Z,52.34
2023-01-22T07:55:49.216Z,52.36
2023-01-22T07:56:51.018Z,52.40
2023-01-22T07:57:52.864Z,52.38
2023-01-22T07:58:54.679Z,52.35
2023-01-22T07:59:56.556Z,52.29
2023-01-22T08:00:58.525Z,52.30
2023-01-22T08:02:03.102Z,52.30
2023-01-22T08:03:03.966Z,52.36
2023-01-22T08:04:05.815Z,52.37
2023-01-22T08:05:07.687Z,52.30
2023-01-22T08:06:10.756Z,52.27
2023-01-22T08:07:12.610Z,52.24
2023-01-22T08:08:14.431Z,52.15
2023-01-22T08:09:16.245Z,52.08
2023-01-22T08:10:18.699Z,52.09
2023-01-22T08:11:20.781Z,52.03
2023-01-22T08:12:22.563Z,51.99
2023-01-22T08:13:24.368Z,52.00
2023-01-22T08:14:26.183Z,51.96
2023-01-22T08:15:28.051Z,51.89
2023-01-22T08:16:29.995Z,51.88
2023-01-22T08:17:31.788Z,51.94
2023-01-22T08:18:33.616Z,51.91
2023-01-22T08:19:35.427Z,51.84
2023-01-22T08:20:37.291Z,51.69
2023-01-22T08:21:39.130Z,51.64
2023-01-22T08:22:41.111Z,51.67
2023-01-22T08:23:46.153Z,51.80
2023-01-22T08:24:46.562Z,51.86
2023-01-22T08:25:48.417Z,52.03
2023-01-22T08:26:50.409Z,52.03
2023-01-22T08:27:52.220Z,51.98
2023-01-22T08:28:54.060Z,51.96
2023-01-22T08:29:55.956Z,51.96
2023-01-22T08:30:57.966Z,51.91
2023-01-22T08:31:59.900Z,51.89
2023-01-22T08:33:01.784Z,51.85
2023-01-22T08:34:03.585Z,51.86
2023-01-22T08:35:05.382Z,51.91
2023-01-22T08:36:07.862Z,52.00
2023-01-22T08:37:09.681Z,52.00
2023-01-22T08:38:11.532Z,51.99
2023-01-22T08:39:13.383Z,51.99
2023-01-22T08:40:15.571Z,52.09
2023-01-22T08:41:17.659Z,52.05
2023-01-22T08:42:19.466Z,51.99
2023-01-22T08:43:21.281Z,51.94
2023-01-22T08:44:23.066Z,51.99
2023-01-22T08:45:24.969Z,52.08
2023-01-22T08:46:26.876Z,52.15
2023-01-22T08:47:28.653Z,52.19
2023-01-22T08:48:30.440Z,52.19
2023-01-22T08:49:32.239Z,52.20
2023-01-22T08:50:34.120Z,52.20
2023-01-22T08:51:35.954Z,52.20
2023-01-22T08:52:37.739Z,52.17
2023-01-22T08:53:39.564Z,52.18
2023-01-22T08:54:41.355Z,52.21
2023-01-22T08:55:43.375Z,52.24
2023-01-22T08:56:45.416Z,52.15
2023-01-22T08:57:47.207Z,52.08
2023-01-22T08:58:49.085Z,52.15
2023-01-22T09:00:00.693Z,52.22
2023-01-22T09:00:54.635Z,52.29
2023-01-22T09:01:56.507Z,52.27
2023-01-22T09:02:58.271Z,52.20
2023-01-22T09:04:00.056Z,52.11
2023-01-22T09:05:01.836Z,52.08
2023-01-22T09:06:03.834Z,52.12
2023-01-22T09:07:05.671Z,52.12
2023-01-22T09:08:07.463Z,52.24
2023-01-22T09:09:09.280Z,52.23
2023-01-22T09:10:11.384Z,52.21
2023-01-22T09:11:13.186Z,52.16
2023-01-22T09:12:14.986Z,52.18
2023-01-22T09:13:16.782Z,52.26
2023-01-22T09:14:18.581Z,52.29
2023-01-22T09:15:20.367Z,52.26
2023-01-22T09:16:22.403Z,52.19
2023-01-22T09:17:24.268Z,52.18
2023-01-22T09:18:26.092Z,52.19
2023-01-22T09:19:27.871Z,52.08
2023-01-22T09:20:29.653Z,52.02
2023-01-22T09:21:31.439Z,52.00
2023-01-22T09:22:33.288Z,52.02
2023-01-22T09:23:35.114Z,52.03
2023-01-22T09:24:36.888Z,51.95
2023-01-22T09:25:38.684Z,52.07
2023-01-22T09:26:40.584Z,52.12
2023-01-22T09:27:42.421Z,52.13
2023-01-22T09:28:44.212Z,52.13
2023-01-22T09:29:45.999Z,52.07
2023-01-22T09:30:47.851Z,52.04
2023-01-22T09:31:49.741Z,51.92
2023-01-22T09:32:51.619Z,51.92
2023-01-22T09:33:53.412Z,51.92
2023-01-22T09:34:55.202Z,51.95
2023-01-22T09:35:57.003Z,51.90
2023-01-22T09:36:58.904Z,51.88
2023-01-22T09:38:00.733Z,51.88
2023-01-22T09:39:02.526Z,51.80
2023-01-22T09:40:04.493Z,51.80
2023-01-22T09:41:06.293Z,51.85
2023-01-22T09:42:08.066Z,51.88
2023-01-22T09:43:09.898Z,51.85
2023-01-22T09:44:11.695Z,51.89
2023-01-22T09:45:13.510Z,51.84
2023-01-22T09:46:15.545Z,51.81
2023-01-22T09:47:17.405Z,51.77
2023-01-22T09:48:19.229Z,51.71
2023-01-22T09:49:21.027Z,51.73
2023-01-22T09:50:23.087Z,51.77
2023-01-22T09:51:24.833Z,51.83
2023-01-22T09:52:26.621Z,51.86
2023-01-22T09:53:28.473Z,51.83
2023-01-22T09:54:30.248Z,51.85
2023-01-22T09:55:32.078Z,51.82
2023-01-22T09:56:33.981Z,51.80
2023-01-22T09:57:35.784Z,51.77
2023-01-22T09:58:37.617Z,51.69
2023-01-22T09:59:39.493Z,51.70
2023-01-22T10:00:41.383Z,51.76
2023-01-22T10:01:44.409Z,51.75
2023-01-22T10:02:46.339Z,51.82
2023-01-22T10:03:48.149Z,51.82
2023-01-22T10:04:49.951Z,51.87
2023-01-22T10:05:51.746Z,51.85
2023-01-22T10:06:53.669Z,51.82
2023-01-22T10:07:55.459Z,51.82
2023-01-22T10:08:57.316Z,51.77
2023-01-22T10:09:59.120Z,51.78
2023-01-22T10:11:00.992Z,51.79
2023-01-22T10:12:02.771Z,51.74
2023-01-22T10:13:04.568Z,51.64
2023-01-22T10:14:06.403Z,51.61
2023-01-22T10:15:08.180Z,51.49
2023-01-22T10:16:10.123Z,51.52
2023-01-22T10:17:11.885Z,51.52
2023-01-22T10:18:13.708Z,51.48
2023-01-22T10:19:15.528Z,51.39
2023-01-22T10:20:17.720Z,51.42
2023-01-22T10:21:19.632Z,51.54
2023-01-22T10:22:21.423Z,51.58
2023-01-22T10:23:23.229Z,51.58
2023-01-22T10:24:25.031Z,51.67
2023-01-22T10:25:26.832Z,51.76
2023-01-22T10:26:29.419Z,51.75
2023-01-22T10:27:31.212Z,51.76
2023-01-22T10:30:11.529Z,51.66
2023-01-22T10:31:13.489Z,51.63
2023-01-22T10:32:15.304Z,51.67
2023-01-22T10:33:16.986Z,51.67
2023-01-22T10:34:18.796Z,51.73
2023-01-22T10:35:20.798Z,51.71
2023-01-22T10:36:22.581Z,51.62
2023-01-22T10:37:24.692Z,51.61
2023-01-22T10:38:26.479Z,51.62
2023-01-22T10:39:28.415Z,51.55
2023-01-22T10:40:30.337Z,51.47
2023-01-22T10:41:32.145Z,51.43
2023-01-22T10:42:33.978Z,51.38
2023-01-22T10:43:35.770Z,51.36
2023-01-22T10:44:37.577Z,51.30
2023-01-22T10:45:39.525Z,51.30
2023-01-22T10:46:41.419Z,51.15
2023-01-22T10:47:43.197Z,51.15
2023-01-22T10:48:45.029Z,51.20
2023-01-22T10:49:46.833Z,51.34
2023-01-22T10:50:48.793Z,51.36
2023-01-22T10:51:50.545Z,51.30
2023-01-22T10:52:52.363Z,51.25
2023-01-22T10:53:54.169Z,51.32
2023-01-22T10:54:55.975Z,51.40
2023-01-22T10:55:57.965Z,51.30
2023-01-22T10:56:59.867Z,51.41
2023-01-22T10:58:01.863Z,51.50
2023-01-22T10:59:03.777Z,51.50
2023-01-22T11:00:05.879Z,51.53
2023-01-22T11:01:07.770Z,51.43
2023-01-22T11:02:09.603Z,51.46
2023-01-22T11:03:11.401Z,51.58
2023-01-22T11:04:13.235Z,51.64
2023-01-22T11:05:15.046Z,51.67
2023-01-22T11:06:17.046Z,51.63
2023-01-22T11:07:18.870Z,51.62
2023-01-22T11:08:21.870Z,51.54
2023-01-22T11:09:24.376Z,51.53
2023-01-22T11:10:26.497Z,51.57
2023-01-22T11:11:28.352Z,51.67
2023-01-22T11:12:30.200Z,51.61
2023-01-22T11:13:32.069Z,51.57
2023-01-22T11:14:33.861Z,51.58
2023-01-22T11:15:35.707Z,51.53
2023-01-22T11:16:37.754Z,51.58
2023-01-22T11:17:39.574Z,51.56
2023-01-22T11:18:41.424Z,51.52
2023-01-22T11:19:45.143Z,51.59
2023-01-22T11:20:47.069Z,51.60
2023-01-22T11:21:48.943Z,51.58
2023-01-22T11:22:50.763Z,51.48
2023-01-22T11:23:52.570Z,51.55
2023-01-22T11:24:54.384Z,51.48
2023-01-22T11:25:56.223Z,51.51
2023-01-22T11:26:58.170Z,51.55
2023-01-22T11:27:59.998Z,51.45
2023-01-22T11:29:01.900Z,51.45
2023-01-22T11:30:03.709Z,51.40
2023-01-22T11:31:05.606Z,51.40
2023-01-22T11:32:07.463Z,51.39
2023-01-22T11:33:09.286Z,51.38
2023-01-22T11:34:11.078Z,51.44
2023-01-22T11:35:12.985Z,51.44
2023-01-22T11:36:14.898Z,51.38
2023-01-22T11:37:16.763Z,51.39
2023-01-22T11:38:18.575Z,51.41
2023-01-22T11:39:20.376Z,51.28
2023-01-22T11:40:22.499Z,51.28
2023-01-22T11:41:24.431Z,51.24
2023-01-22T11:42:26.288Z,51.28
2023-01-22T11:43:28.099Z,51.26
2023-01-22T11:44:30.033Z,51.29
2023-01-22T11:45:31.915Z,51.30
2023-01-22T11:46:33.788Z,51.38
2023-01-22T11:47:35.703Z,51.41
2023-01-22T11:48:39.337Z,51.37
2023-01-22T11:49:41.179Z,51.37
2023-01-22T11:50:43.027Z,51.35
2023-01-22T11:51:44.873Z,51.35
2023-01-22T11:52:46.733Z,51.28
2023-01-22T11:53:48.578Z,51.33
2023-01-22T11:54:50.387Z,51.57
2023-01-22T11:55:52.231Z,51.61
2023-01-22T11:56:54.132Z,51.57
2023-01-22T11:57:56.014Z,51.66
2023-01-22T11:58:57.879Z,51.66
2023-01-22T11:59:59.728Z,51.63
2023-01-22T12:01:01.644Z,51.66
2023-01-22T12:02:03.584Z,51.60
2023-01-22T12:03:07.380Z,51.66
2023-01-22T12:04:09.354Z,51.68
2023-01-22T12:05:11.275Z,51.60
2023-01-22T12:06:13.211Z,51.62
2023-01-22T12:07:15.044Z,51.55
2023-01-22T12:08:30.184Z,51.57
2023-01-22T12:09:32.162Z,51.51
2023-01-22T12:10:34.127Z,51.49
2023-01-22T12:11:36.013Z,51.42
2023-01-22T12:12:51.146Z,51.33
2023-01-22T12:14:05.348Z,51.26
2023-01-22T12:15:02.886Z,51.23
2023-01-22T12:16:05.632Z,51.19
2023-01-22T12:17:07.608Z,51.12
2023-01-22T12:18:15.660Z,51.02
2023-01-22T12:19:19.304Z,51.01
2023-01-22T12:20:21.418Z,51.07
2023-01-22T12:21:23.427Z,51.16
2023-01-22T12:22:25.273Z,51.25
2023-01-22T12:23:27.112Z,51.29
2023-01-22T12:24:28.909Z,51.26
2023-01-22T12:25:30.820Z,51.25
2023-01-22T12:26:32.910Z,51.25
2023-01-22T12:27:34.730Z,51.22
2023-01-22T12:28:36.534Z,51.18
2023-01-22T12:29:38.383Z,51.19
2023-01-22T12:30:40.403Z,51.17
2023-01-22T12:31:42.459Z,51.22
2023-01-22T12:32:44.235Z,51.20
2023-01-22T12:33:46.075Z,51.33
2023-01-22T12:34:47.880Z,51.40
2023-01-22T12:35:49.704Z,51.39
2023-01-22T12:36:51.696Z,51.36
2023-01-22T12:37:53.544Z,51.30
2023-01-22T12:38:55.365Z,51.24
2023-01-22T12:39:57.189Z,51.24
2023-01-22T12:40:59.304Z,51.22
2023-01-22T12:42:01.246Z,51.28
2023-01-22T12:43:03.050Z,51.33
2023-01-22T12:44:04.855Z,51.36
2023-01-22T12:45:06.761Z,51.37
2023-01-22T12:46:09.631Z,51.36
2023-01-22T12:47:11.754Z,51.40
2023-01-22T12:48:13.606Z,51.59
2023-01-22T12:49:15.420Z,51.66
2023-01-22T12:50:17.460Z,51.65
2023-01-22T12:51:19.285Z,51.69
2023-01-22T12:52:21.147Z,51.72
2023-01-22T12:53:22.975Z,51.74
2023-01-22T12:54:24.866Z,51.68
2023-01-22T12:55:26.676Z,51.61
2023-01-22T12:56:28.628Z,51.54
2023-01-22T12:57:30.462Z,51.46
2023-01-22T12:58:32.343Z,51.42
2023-01-22T12:59:34.155Z,51.50
2023-01-22T13:00:36.148Z,51.61
2023-01-22T13:01:38.045Z,51.67
2023-01-22T13:02:40.205Z,51.66
2023-01-22T13:03:42.022Z,51.74
2023-01-22T13:04:43.834Z,51.87
2023-01-22T13:05:45.688Z,51.95
2023-01-22T13:06:47.616Z,52.01
2023-01-22T13:07:49.475Z,52.19
2023-01-22T13:08:51.324Z,52.34
2023-01-22T13:09:53.167Z,52.36
2023-01-22T13:10:55.069Z,52.37
2023-01-22T13:11:56.849Z,52.28
2023-01-22T13:12:58.681Z,52.32
2023-01-22T13:14:13.576Z,52.39
2023-01-22T13:15:04.081Z,52.40
2023-01-22T13:16:06.423Z,52.33
2023-01-22T13:17:08.282Z,52.37
2023-01-22T13:18:10.180Z,52.41
2023-01-22T13:19:11.959Z,52.49